首页
METAR-TAF:

METAR-TAF

机场 :

亚兹德, 伊朗

纬度: 31-54N, 经度: 054-24E, 海拔: 1238米

当前天气观测

该预报发布于1小时和8分钟前的08:00 UTC
风速2节,风向西北
温度 27°C
湿度 15%
气压 1025 hPa
能见度10公里或以上
1500米以下无云,无积雨云

METAR: OIYY 170800Z 32002KT CAVOK 27/M02 Q1025

时间: 12:38 (09:08 UTC)


TAF: 丢失

超过4000个机场的气象观测和天气预报(METAR&TAF报告)。

可查询的气象台以黄色和红色小点在地图上表示。

将鼠标移到小点上方,可查看气象台名称。

然后点击查看天气观测和预报。

如需切换地图:点击带黑十字的绿色按钮放大地图;点击带横线的绿色按钮缩小地图;或者点击绿色箭头查看邻近地区的地图。


METAR-TAF: